createdAt,value
2019-04-23T00:01:14.762Z,33.60
2019-04-23T00:03:05.520Z,33.60
2019-04-23T00:05:30.328Z,33.60
2019-04-23T00:07:39.182Z,33.80
2019-04-23T00:09:35.527Z,33.80
2019-04-23T00:11:44.904Z,34.70
2019-04-23T00:13:49.866Z,35.10
2019-04-23T00:16:03.138Z,35.00
2019-04-23T00:18:04.242Z,34.80
2019-04-23T00:20:14.270Z,34.90
2019-04-23T00:22:28.967Z,35.10
2019-04-23T00:25:12.185Z,35.20
2019-04-23T00:26:51.893Z,35.40
2019-04-23T00:29:08.322Z,35.60
2019-04-23T00:33:19.943Z,35.90
2019-04-23T00:35:23.581Z,35.90
2019-04-23T00:39:35.837Z,36.30
2019-04-23T00:41:42.690Z,36.60
2019-04-23T00:48:09.387Z,36.50
2019-04-23T00:50:32.573Z,36.70
2019-04-23T00:52:24.001Z,37.20
2019-04-23T00:54:28.852Z,37.10
2019-04-23T00:56:38.264Z,37.20
2019-04-23T00:58:41.629Z,37.20
2019-04-23T01:02:59.013Z,37.40
2019-04-23T01:05:11.719Z,37.60
2019-04-23T01:07:22.864Z,37.80
2019-04-23T01:13:47.568Z,37.40
2019-04-23T01:15:46.724Z,38.10
2019-04-23T01:18:02.380Z,38.30
2019-04-23T01:20:09.720Z,38.40
2019-04-23T01:21:57.934Z,38.40
2019-04-23T01:24:25.892Z,38.30
2019-04-23T01:27:23.741Z,38.20
2019-04-23T01:29:20.183Z,38.40
2019-04-23T01:31:31.970Z,38.50
2019-04-23T01:33:37.930Z,38.60
2019-04-23T01:35:55.773Z,38.30
2019-04-23T01:37:47.765Z,39.50
2019-04-23T01:39:57.846Z,38.50
2019-04-23T01:42:16.887Z,37.70
2019-04-23T01:44:14.241Z,38.00
2019-04-23T01:46:21.627Z,38.30
2019-04-23T01:48:26.129Z,38.70
2019-04-23T01:50:37.388Z,38.60
2019-04-23T01:52:45.546Z,37.90
2019-04-23T01:54:52.613Z,37.90
2019-04-23T01:56:56.293Z,38.10
2019-04-23T01:59:08.397Z,38.40
2019-04-23T02:01:11.751Z,38.10
2019-04-23T02:03:20.811Z,37.60
2019-04-23T02:05:38.223Z,38.10
2019-04-23T02:07:44.283Z,38.70
2019-04-23T02:09:48.217Z,38.80
2019-04-23T02:11:50.668Z,38.90
2019-04-23T02:13:56.792Z,38.70
2019-04-23T02:16:00.034Z,38.80
2019-04-23T02:18:11.504Z,38.70
2019-04-23T02:20:21.867Z,38.70
2019-04-23T02:25:24.850Z,39.10
2019-04-23T02:27:29.582Z,38.90
2019-04-23T02:33:54.176Z,38.70
2019-04-23T02:40:23.311Z,39.00
2019-04-23T02:42:30.847Z,39.20
2019-04-23T02:44:26.293Z,39.40
2019-04-23T02:46:20.847Z,40.40
2019-04-23T02:52:56.127Z,40.30
2019-04-23T02:55:09.069Z,40.30
2019-04-23T02:57:05.671Z,40.70
2019-04-23T02:59:21.864Z,40.70
2019-04-23T03:09:53.828Z,41.50
2019-04-23T03:11:56.801Z,41.30
2019-04-23T03:14:12.048Z,41.80
2019-04-23T03:16:27.138Z,41.20
2019-04-23T03:18:46.936Z,41.90
2019-04-23T03:21:15.598Z,42.00
2019-04-23T03:23:27.456Z,42.30
2019-04-23T03:25:36.326Z,42.50
2019-04-23T03:29:49.480Z,42.80
2019-04-23T03:36:18.326Z,43.20
2019-04-23T03:38:20.475Z,43.30
2019-04-23T03:42:24.437Z,43.30
2019-04-23T03:44:39.864Z,43.50
2019-04-23T03:48:47.836Z,43.70
2019-04-23T03:50:43.586Z,43.70
2019-04-23T03:52:57.784Z,43.80
2019-04-23T03:55:11.102Z,43.90
2019-04-23T03:57:21.243Z,43.80
2019-04-23T04:01:38.945Z,43.60
2019-04-23T04:04:10.730Z,43.80
2019-04-23T04:08:07.248Z,44.00
2019-04-23T04:10:05.056Z,44.00
2019-04-23T04:12:16.478Z,44.30
2019-04-23T04:16:17.997Z,44.70
2019-04-23T04:18:44.175Z,44.70
2019-04-23T04:29:21.143Z,44.90
2019-04-23T04:31:36.958Z,45.00
2019-04-23T04:35:22.909Z,45.20
2019-04-23T04:40:23.705Z,45.00
2019-04-23T04:42:09.325Z,45.00
2019-04-23T04:46:15.158Z,45.40
2019-04-23T04:48:18.136Z,45.70
2019-04-23T04:50:45.897Z,46.30
2019-04-23T04:54:30.861Z,45.60
2019-04-23T04:58:47.537Z,45.70
2019-04-23T05:01:04.251Z,45.80
2019-04-23T05:03:22.193Z,45.80
2019-04-23T05:05:38.061Z,45.90
2019-04-23T05:07:32.703Z,46.00
2019-04-23T05:09:43.974Z,46.10
2019-04-23T05:11:46.135Z,46.40
2019-04-23T05:13:47.661Z,46.30
2019-04-23T05:18:23.655Z,46.50
2019-04-23T05:20:19.973Z,46.50
2019-04-23T05:22:30.887Z,46.60
2019-04-23T05:24:36.811Z,46.80
2019-04-23T05:26:30.390Z,46.90
2019-04-23T05:33:04.095Z,47.20
2019-04-23T05:35:15.061Z,47.10
2019-04-23T05:37:45.573Z,47.20
2019-04-23T05:39:30.639Z,47.30
2019-04-23T05:41:32.009Z,47.60
2019-04-23T05:43:43.630Z,47.70
2019-04-23T05:48:04.681Z,47.90
2019-04-23T05:50:00.715Z,48.00
2019-04-23T05:52:09.726Z,48.10
2019-04-23T05:56:22.636Z,48.30
2019-04-23T05:58:28.711Z,48.40
2019-04-23T06:00:41.359Z,48.70
2019-04-23T06:02:53.710Z,48.80
2019-04-23T06:04:49.866Z,48.90
2019-04-23T06:07:11.107Z,48.90
2019-04-23T06:09:09.147Z,49.10
2019-04-23T06:11:12.008Z,49.10
2019-04-23T06:13:21.920Z,49.20
2019-04-23T06:15:28.901Z,49.50
2019-04-23T06:17:29.796Z,49.70
2019-04-23T06:19:36.810Z,49.70
2019-04-23T06:23:59.733Z,49.70
2019-04-23T06:26:20.158Z,50.40
2019-04-23T06:28:19.245Z,48.90
2019-04-23T06:30:42.176Z,48.20
2019-04-23T06:32:29.825Z,48.40
2019-04-23T06:34:33.902Z,48.10
2019-04-23T06:36:38.477Z,47.50
2019-04-23T06:38:54.608Z,47.30
2019-04-23T06:40:59.550Z,47.10
2019-04-23T06:43:45.938Z,46.80
2019-04-23T06:46:01.476Z,46.60
2019-04-23T06:47:56.188Z,46.30
2019-04-23T06:54:19.116Z,45.40
2019-04-23T06:56:26.511Z,45.20
2019-04-23T06:58:34.186Z,45.00
2019-04-23T07:02:44.244Z,44.40
2019-04-23T07:05:02.207Z,44.20
2019-04-23T07:11:25.860Z,43.70
2019-04-23T07:13:29.578Z,43.50
2019-04-23T07:17:30.790Z,42.90
2019-04-23T07:19:42.220Z,42.70
2019-04-23T07:21:55.960Z,42.50
2019-04-23T07:24:00.685Z,42.30
2019-04-23T07:26:08.040Z,42.20
2019-04-23T07:28:16.625Z,42.30
2019-04-23T07:32:35.958Z,41.60
2019-04-23T07:34:28.485Z,41.40
2019-04-23T07:39:11.665Z,41.00
2019-04-23T07:41:48.162Z,40.80
2019-04-23T07:44:12.888Z,40.60
2019-04-23T07:46:33.775Z,40.50
2019-04-23T07:48:22.274Z,40.30
2019-04-23T07:50:46.069Z,40.40
2019-04-23T07:53:00.234Z,40.20
2019-04-23T07:55:02.590Z,39.70
2019-04-23T07:57:12.263Z,39.30
2019-04-23T07:59:12.145Z,38.90
2019-04-23T08:01:15.285Z,38.80
2019-04-23T08:03:22.652Z,38.80
2019-04-23T08:05:35.278Z,38.60
2019-04-23T08:07:42.637Z,38.60
2019-04-23T08:09:54.239Z,38.50
2019-04-23T08:12:07.885Z,38.10
2019-04-23T08:14:08.361Z,37.80
2019-04-23T08:16:21.810Z,37.60
2019-04-23T08:18:23.168Z,37.40
2019-04-23T08:20:26.834Z,37.30
2019-04-23T08:24:50.691Z,37.40
2019-04-23T08:26:59.634Z,37.20
2019-04-23T08:29:10.147Z,36.90
2019-04-23T08:31:16.452Z,37.00
2019-04-23T08:33:17.233Z,37.10
2019-04-23T08:35:23.335Z,37.00
2019-04-23T08:37:46.772Z,36.80
2019-04-23T08:39:43.471Z,37.20
2019-04-23T08:44:01.085Z,36.30
2019-04-23T08:46:13.481Z,36.10
2019-04-23T08:50:34.028Z,35.90
2019-04-23T08:52:38.291Z,35.80
2019-04-23T08:56:55.239Z,35.80
2019-04-23T08:58:55.723Z,35.50
2019-04-23T09:01:08.897Z,35.50
2019-04-23T09:03:21.430Z,35.40
2019-04-23T09:05:28.546Z,35.20
2019-04-23T09:11:45.774Z,35.10
2019-04-23T09:15:55.944Z,35.10
2019-04-23T09:18:12.680Z,35.00
2019-04-23T09:22:22.654Z,35.00
2019-04-23T09:24:29.446Z,34.80
2019-04-23T09:26:37.938Z,34.70
2019-04-23T09:28:46.370Z,34.30
2019-04-23T09:31:11.580Z,35.20
2019-04-23T09:32:59.918Z,34.30
2019-04-23T09:37:47.182Z,34.20
2019-04-23T09:40:09.028Z,34.40
2019-04-23T09:42:29.658Z,34.20
2019-04-23T09:47:12.867Z,33.80
2019-04-23T09:49:14.950Z,33.60
2019-04-23T09:51:20.982Z,33.50
2019-04-23T09:53:29.528Z,33.50
2019-04-23T09:55:35.523Z,33.70
2019-04-23T09:57:43.426Z,33.50
2019-04-23T09:59:45.947Z,33.60
2019-04-23T10:01:45.501Z,33.20
2019-04-23T10:03:46.236Z,33.40
2019-04-23T10:05:51.072Z,33.30
2019-04-23T10:07:58.446Z,33.20
2019-04-23T10:09:57.372Z,33.30
2019-04-23T10:12:03.088Z,33.10
2019-04-23T10:14:08.393Z,32.90
2019-04-23T10:16:17.238Z,32.60
2019-04-23T10:18:22.386Z,32.50
2019-04-23T10:20:28.960Z,32.50
2019-04-23T10:22:36.265Z,32.70
2019-04-23T10:24:41.192Z,33.10
2019-04-23T10:26:48.153Z,33.30
2019-04-23T10:29:00.306Z,33.00
2019-04-23T10:31:07.126Z,32.90
2019-04-23T10:33:13.714Z,33.10
2019-04-23T10:35:32.127Z,33.10
2019-04-23T10:37:36.769Z,32.90
2019-04-23T10:39:37.763Z,32.80
2019-04-23T10:41:42.606Z,33.00
2019-04-23T10:43:54.131Z,32.70
2019-04-23T10:46:27.847Z,32.60
2019-04-23T10:49:12.921Z,32.30
2019-04-23T10:51:30.627Z,32.00
2019-04-23T10:53:32.875Z,31.80
2019-04-23T10:55:42.179Z,31.90
2019-04-23T10:57:36.077Z,31.60
2019-04-23T11:00:04.402Z,31.40
2019-04-23T11:02:22.261Z,31.50
2019-04-23T11:06:25.031Z,31.60
2019-04-23T11:08:25.605Z,31.50
2019-04-23T11:10:25.747Z,31.40
2019-04-23T11:13:13.301Z,31.40
2019-04-23T11:15:30.369Z,31.30
2019-04-23T11:17:32.988Z,31.30
2019-04-23T11:19:41.828Z,31.20
2019-04-23T11:21:38.538Z,31.10
2019-04-23T11:25:49.193Z,31.40
2019-04-23T11:30:19.605Z,31.50
2019-04-23T11:32:42.709Z,31.50
2019-04-23T11:34:33.797Z,30.90
2019-04-23T11:40:36.947Z,30.10
2019-04-23T11:42:57.954Z,30.10
2019-04-23T11:45:24.562Z,30.00
2019-04-23T11:47:23.196Z,30.00
2019-04-23T11:49:24.877Z,30.00
2019-04-23T11:53:38.615Z,30.00
2019-04-23T11:55:47.680Z,30.00
2019-04-23T11:57:54.605Z,30.00
2019-04-23T12:00:05.947Z,30.00
2019-04-23T12:02:22.776Z,30.00
2019-04-23T12:04:57.588Z,30.00
2019-04-23T12:07:14.003Z,30.00
2019-04-23T12:09:37.771Z,30.10
2019-04-23T12:14:26.719Z,30.00
2019-04-23T12:16:20.362Z,30.00
2019-04-23T12:18:35.361Z,30.10
2019-04-23T12:22:51.256Z,30.10
2019-04-23T12:28:57.150Z,30.10
2019-04-23T12:31:08.803Z,30.80
2019-04-23T12:33:22.033Z,30.20
2019-04-23T12:35:17.733Z,30.20
2019-04-23T12:37:55.584Z,30.00
2019-04-23T12:42:21.293Z,30.40
2019-04-23T12:44:14.914Z,30.00
2019-04-23T12:46:24.069Z,30.00
2019-04-23T12:50:45.407Z,30.40
2019-04-23T12:54:59.014Z,30.00
2019-04-23T12:57:04.815Z,29.80
2019-04-23T12:58:57.918Z,29.60
2019-04-23T13:01:05.581Z,29.70
2019-04-23T13:03:16.940Z,29.70
2019-04-23T13:05:31.470Z,29.90
2019-04-23T13:07:43.279Z,29.50
2019-04-23T13:09:46.032Z,29.70
2019-04-23T13:11:50.019Z,29.50
2019-04-23T13:13:58.703Z,29.50
2019-04-23T13:16:12.360Z,29.40
2019-04-23T13:18:15.625Z,29.30
2019-04-23T13:20:23.653Z,29.30
2019-04-23T13:22:31.909Z,29.10
2019-04-23T13:24:54.084Z,29.10
2019-04-23T13:27:10.743Z,29.20
2019-04-23T13:29:18.563Z,29.00
2019-04-23T13:31:17.818Z,29.20
2019-04-23T13:33:34.716Z,29.20
2019-04-23T13:35:46.715Z,29.10
2019-04-23T13:37:53.257Z,29.00
2019-04-23T13:39:51.550Z,29.00
2019-04-23T13:41:52.505Z,29.10
2019-04-23T13:43:56.924Z,29.10
2019-04-23T13:46:14.179Z,29.00
2019-04-23T13:48:14.856Z,29.10
2019-04-23T13:50:37.159Z,29.20
2019-04-23T13:53:05.315Z,29.20
2019-04-23T13:55:02.891Z,29.50
2019-04-23T13:57:27.073Z,29.40
2019-04-23T14:01:18.337Z,29.40
2019-04-23T14:03:26.358Z,29.70
2019-04-23T14:05:33.205Z,29.80
2019-04-23T14:07:48.496Z,30.00
2019-04-23T14:09:54.187Z,29.90
2019-04-23T14:11:53.246Z,29.60
2019-04-23T14:14:05.813Z,29.70
2019-04-23T14:20:30.270Z,29.50
2019-04-23T14:23:00.100Z,30.20
2019-04-23T14:24:59.368Z,29.70
2019-04-23T14:27:07.317Z,30.00
2019-04-23T14:28:54.627Z,30.30
2019-04-23T14:31:04.717Z,29.90
2019-04-23T14:35:33.188Z,30.00
2019-04-23T14:37:21.680Z,30.00
2019-04-23T14:39:32.191Z,30.00
2019-04-23T14:41:56.541Z,30.00
2019-04-23T14:43:58.075Z,30.00
2019-04-23T14:48:28.365Z,30.00
2019-04-23T14:52:49.831Z,30.00
2019-04-23T14:55:22.154Z,30.20
2019-04-23T14:57:03.190Z,30.20
2019-04-23T14:59:10.550Z,30.20
2019-04-23T15:03:28.799Z,30.20
2019-04-23T15:05:27.632Z,30.20
2019-04-23T15:09:45.980Z,30.00
2019-04-23T15:14:03.538Z,30.60
2019-04-23T15:18:25.258Z,30.20
2019-04-23T15:20:39.469Z,30.00
2019-04-23T15:22:57.789Z,30.00
2019-04-23T15:24:50.172Z,29.90
2019-04-23T15:28:43.754Z,29.90
2019-04-23T15:31:21.159Z,30.00
2019-04-23T15:35:31.835Z,30.00
2019-04-23T15:37:40.949Z,29.90
2019-04-23T15:39:42.863Z,29.90
2019-04-23T15:41:55.900Z,29.90
2019-04-23T15:43:57.766Z,30.00
2019-04-23T15:46:02.177Z,30.00
2019-04-23T15:48:11.591Z,30.20
2019-04-23T15:50:16.659Z,30.30
2019-04-23T15:52:27.920Z,30.20
2019-04-23T15:54:43.603Z,30.50
2019-04-23T15:56:42.248Z,30.50
2019-04-23T15:58:53.700Z,31.20
2019-04-23T16:01:29.301Z,30.60
2019-04-23T16:03:06.916Z,30.90
2019-04-23T16:05:14.824Z,30.80
2019-04-23T16:07:35.165Z,31.00
2019-04-23T16:10:05.869Z,30.80
2019-04-23T16:11:56.669Z,30.90
2019-04-23T16:16:26.198Z,31.10
2019-04-23T16:19:02.122Z,31.30
2019-04-23T16:21:12.545Z,31.30
2019-04-23T16:23:04.715Z,31.60
2019-04-23T16:25:12.997Z,31.50
2019-04-23T16:27:16.948Z,31.40
2019-04-23T16:30:32.928Z,31.50
2019-04-23T16:33:54.811Z,31.50
2019-04-23T16:36:19.914Z,31.50
2019-04-23T16:40:24.002Z,31.60
2019-04-23T16:42:29.770Z,31.80
2019-04-23T16:44:40.424Z,31.60
2019-04-23T16:46:42.080Z,31.70
2019-04-23T16:53:09.421Z,32.10
2019-04-23T16:55:07.476Z,31.90
2019-04-23T16:57:35.463Z,32.00
2019-04-23T16:59:18.213Z,32.00
2019-04-23T17:01:20.504Z,32.10
2019-04-23T17:08:06.627Z,32.30
2019-04-23T17:10:11.472Z,32.30
2019-04-23T17:12:09.118Z,32.50
2019-04-23T17:14:17.338Z,32.50
2019-04-23T17:16:21.353Z,32.50
2019-04-23T17:20:43.481Z,32.70
2019-04-23T17:24:54.147Z,32.70
2019-04-23T17:27:00.851Z,32.80
2019-04-23T17:29:08.010Z,33.00
2019-04-23T17:33:33.264Z,33.00
2019-04-23T17:35:46.209Z,33.10
2019-04-23T17:37:51.948Z,33.20
2019-04-23T17:40:08.668Z,33.70
2019-04-23T17:42:22.390Z,33.90
2019-04-23T17:44:46.889Z,34.10
2019-04-23T17:46:37.550Z,34.30
2019-04-23T17:48:35.350Z,33.70
2019-04-23T17:53:04.934Z,33.30
2019-04-23T17:59:33.268Z,34.20
2019-04-23T18:03:58.446Z,34.70
2019-04-23T18:05:57.473Z,35.00
2019-04-23T18:08:08.591Z,35.50
2019-04-23T18:10:12.730Z,35.70
2019-04-23T18:12:16.862Z,35.80
2019-04-23T18:14:08.538Z,36.00
2019-04-23T18:16:30.812Z,36.10
2019-04-23T18:18:33.446Z,36.20
2019-04-23T18:20:54.815Z,36.30
2019-04-23T18:23:04.787Z,36.30
2019-04-23T18:27:21.538Z,36.40
2019-04-23T18:32:07.877Z,36.30
2019-04-23T18:34:08.811Z,36.50
2019-04-23T18:36:14.826Z,36.40
2019-04-23T18:38:28.962Z,36.50
2019-04-23T18:40:31.257Z,36.90
2019-04-23T18:42:41.760Z,37.00
2019-04-23T18:46:50.168Z,37.20
2019-04-23T18:48:52.840Z,37.30
2019-04-23T18:55:36.004Z,38.10
2019-04-23T18:57:19.114Z,38.20
2019-04-23T18:59:47.055Z,38.20
2019-04-23T19:02:02.513Z,38.50
2019-04-23T19:04:19.663Z,38.60
2019-04-23T19:06:37.788Z,38.80
2019-04-23T19:09:35.391Z,38.80
2019-04-23T19:11:47.523Z,38.90
2019-04-23T19:13:42.139Z,39.20
2019-04-23T19:15:42.696Z,39.40
2019-04-23T19:17:50.195Z,39.60
2019-04-23T19:20:01.077Z,39.70
2019-04-23T19:24:24.388Z,40.20
2019-04-23T19:26:47.317Z,40.40
2019-04-23T19:28:41.162Z,40.50
2019-04-23T19:33:29.281Z,40.80
2019-04-23T19:35:53.785Z,40.90
2019-04-23T19:37:49.045Z,41.30
2019-04-23T19:39:44.909Z,41.40
2019-04-23T19:41:59.092Z,41.50
2019-04-23T19:44:04.210Z,41.70
2019-04-23T19:46:12.615Z,41.90
2019-04-23T19:48:19.298Z,42.60
2019-04-23T19:50:28.394Z,42.10
2019-04-23T19:52:48.222Z,42.30
2019-04-23T19:54:42.696Z,42.30
2019-04-23T19:56:51.498Z,42.50
2019-04-23T19:58:54.795Z,42.50
2019-04-23T20:01:10.304Z,42.50
2019-04-23T20:05:09.187Z,42.80
2019-04-23T20:07:42.630Z,42.90
2019-04-23T20:11:34.646Z,43.20
2019-04-23T20:13:49.360Z,43.30
2019-04-23T20:15:57.816Z,43.30
2019-04-23T20:17:53.995Z,43.30
2019-04-23T20:20:00.823Z,43.50
2019-04-23T20:22:16.344Z,43.70
2019-04-23T20:29:26.460Z,43.80
2019-04-23T20:31:39.363Z,43.70
2019-04-23T20:32:26.654Z,44.00
2019-04-23T20:35:38.420Z,44.10
2019-04-23T20:40:08.617Z,44.50
2019-04-23T20:46:17.843Z,45.00
2019-04-23T20:48:25.952Z,45.00
2019-04-23T20:50:31.632Z,45.00
2019-04-23T20:52:32.016Z,45.10
2019-04-23T20:57:12.636Z,45.30
2019-04-23T20:59:11.299Z,45.40
2019-04-23T21:01:48.558Z,45.40
2019-04-23T21:04:13.794Z,45.50
2019-04-23T21:06:01.843Z,45.60
2019-04-23T21:08:06.069Z,45.80
2019-04-23T21:10:27.279Z,45.90
2019-04-23T21:12:43.195Z,46.10
2019-04-23T21:16:36.984Z,46.30
2019-04-23T21:18:44.297Z,46.20
2019-04-23T21:23:06.253Z,46.20
2019-04-23T21:25:00.152Z,46.20
2019-04-23T21:27:35.483Z,46.30
2019-04-23T21:29:36.428Z,46.40
2019-04-23T21:31:37.734Z,46.70
2019-04-23T21:33:43.530Z,46.90
2019-04-23T21:36:13.843Z,46.80
2019-04-23T21:38:24.373Z,46.90
2019-04-23T21:40:53.610Z,46.90
2019-04-23T21:43:02.791Z,47.00
2019-04-23T21:45:02.601Z,47.00
2019-04-23T21:47:09.856Z,47.10
2019-04-23T21:49:41.352Z,47.00
2019-04-23T21:51:46.407Z,47.00
2019-04-23T21:53:33.406Z,47.00
2019-04-23T21:55:48.424Z,46.90
2019-04-23T21:57:54.156Z,47.10
2019-04-23T22:01:59.302Z,47.20
2019-04-23T22:04:17.663Z,47.00
2019-04-23T22:06:22.380Z,47.20
2019-04-23T22:08:27.106Z,47.10
2019-04-23T22:10:36.902Z,47.20
2019-04-23T22:12:46.926Z,47.30
2019-04-23T22:14:45.602Z,47.30
2019-04-23T22:16:57.587Z,47.50
2019-04-23T22:19:10.607Z,47.50
2019-04-23T22:25:22.056Z,47.70
2019-04-23T22:27:24.262Z,47.80
2019-04-23T22:31:47.387Z,48.00
2019-04-23T22:34:02.572Z,48.00
2019-04-23T22:36:04.588Z,48.20
2019-04-23T22:40:10.087Z,48.30
2019-04-23T22:42:47.037Z,48.20
2019-04-23T22:44:30.434Z,48.20
2019-04-23T22:46:48.369Z,48.30
2019-04-23T22:49:20.061Z,48.30
2019-04-23T22:51:31.580Z,48.40
2019-04-23T22:53:27.864Z,48.40
2019-04-23T22:55:40.420Z,48.50
2019-04-23T23:02:08.898Z,48.90
2019-04-23T23:04:20.296Z,49.60
2019-04-23T23:06:30.409Z,49.20
2019-04-23T23:10:44.317Z,49.30
2019-04-23T23:12:58.584Z,49.30
2019-04-23T23:15:02.853Z,49.40
2019-04-23T23:17:02.226Z,49.50
2019-04-23T23:19:15.008Z,49.60
2019-04-23T23:21:12.958Z,49.80
2019-04-23T23:23:19.428Z,50.00
2019-04-23T23:25:30.487Z,49.90
2019-04-23T23:27:40.463Z,49.90
2019-04-23T23:29:49.327Z,50.00
2019-04-23T23:34:04.768Z,50.30
2019-04-23T23:36:05.888Z,50.30
2019-04-23T23:38:21.526Z,50.20
2019-04-23T23:40:20.311Z,50.20
2019-04-23T23:42:22.218Z,50.30
2019-04-23T23:46:46.194Z,50.50
2019-04-23T23:48:51.338Z,50.40
2019-04-23T23:51:00.435Z,50.70
2019-04-23T23:53:20.265Z,50.70
2019-04-23T23:59:49.345Z,50.50
